Latest Weather Observations for Ulladulla

IDN60801

Issued at 10:34 am EDT Friday 19 December 2014 (issued every 30 minutes, with the page automatically refreshed every 10 minutes)

About weather observations | Map of weather stations | Latest weather observations for NSW | Other Formats
Station Details ID: 069138 Name: ULLADULLA AWS Lat: -35.36 Lon: 150.48 Height: 35.7 m
Data from the previous 72 hours. | See also: Recent months at Ulladulla
Date/Time
EDT
Temp
°C
App
Temp
°C
Dew
Point
Rel
Hum
%
Delta-T
°C
Wind Press
QNH
hPa
Press
MSL
hPa
Rain
since 9 am
mm
Dir
 
Spd
km/h
Gust
km/h
Spd
kts
Gust
kts
19/10:30am 19.0 16.8 10.8 59 4.4 S 13 26 7 14 1013.5 1013.4 0.0
19/10:00am 18.1 16.7 11.0 63 3.8 SSW 9 17 5 9 1013.6 1013.5 0.0
19/09:30am 18.2 16.1 11.0 63 3.9 SSW 13 19 7 10 1013.3 1013.2 0.0
19/09:00am 19.6 17.9 12.6 64 3.9 SSW 13 20 7 11 1013.2 1013.1 0.0
19/08:30am 18.1 15.7 11.4 65 3.7 SSW 15 22 8 12 1012.9 1012.8 0.0
19/08:00am 17.1 14.6 10.9 67 3.3 SSW 15 19 8 10 1012.6 1012.5 0.0
19/07:30am 16.9 14.9 11.4 70 3.0 SSW 13 19 7 10 1012.2 1012.1 0.0
19/07:00am 16.6 15.0 11.5 72 2.8 SW 11 20 6 11 1011.9 1011.8 0.0
19/06:30am 16.4 13.7 11.8 74 2.5 SSW 17 28 9 15 1011.5 1011.4 0.0
19/06:00am 16.1 14.0 12.3 78 2.1 SSW 15 20 8 11 1011.2 1011.1 0.0
19/05:30am 16.4 15.1 12.4 77 2.2 SSW 11 19 6 10 1010.8 1010.7 0.0
19/05:00am 16.3 15.4 12.5 78 2.1 SW 9 15 5 8 1010.5 1010.4 0.0
19/04:30am 16.4 15.4 13.5 83 1.6 SSW 11 15 6 8 1010.0 1009.9 0.0
19/04:00am 16.7 13.1 13.0 79 2.1 S 24 30 13 16 1009.6 1009.5 0.0
19/03:30am 17.4 11.9 12.5 73 2.7 S 33 43 18 23 1009.2 1009.1 0.0
19/03:00am 17.3 11.0 12.2 72 2.8 S 37 50 20 27 1009.1 1009.0 0.0
19/02:30am 17.3 12.1 13.4 78 2.2 S 33 46 18 25 1009.0 1008.9 0.0
19/02:00am 17.6 10.6 14.3 81 1.9 S 44 57 24 31 1008.2 1008.1 0.0
19/01:30am 17.8 10.5 14.5 81 1.9 S 46 63 25 34 1007.2 1007.1 0.0
19/01:08am 18.2 14.9 17.0 93 0.7 SSW 30 52 16 28 1006.7 1006.6 0.0
19/01:00am 18.8 18.7 17.8 94 0.6 SSW 15 24 8 13 1006.4 1006.3 0.0
19/12:30am 19.3 20.2 18.5 95 0.5 WSW 11 17 6 9 1005.5 1005.4 0.0
19/12:00am 19.3 21.0 18.5 95 0.5 WSW 7 11 4 6 1005.2 1005.1 0.0
 
Date/Time
EDT
Temp
°C
App
Temp
°C
Dew
Point
Rel
Hum
%
Delta-T
°C
Wind Press
QNH
hPa
Press
MSL
hPa
Rain
since 9 am
mm
Dir
 
Spd
km/h
Gust
km/h
Spd
kts
Gust
kts
18/11:30pm 19.3 21.2 18.5 95 0.5 SW 6 9 3 5 1005.4 1005.3 0.0
18/11:00pm 20.1 21.8 19.3 95 0.5 NNW 9 13 5 7 1005.2 1005.1 0.0
18/10:30pm 20.3 22.1 19.5 95 0.5 N 9 15 5 8 1005.3 1005.2 0.0
18/10:00pm 20.5 21.6 19.7 95 0.5 N 13 17 7 9 1005.2 1005.1 0.0
18/09:30pm 20.5 21.7 19.8 96 0.4 N 13 17 7 9 1005.2 1005.1 0.0
18/09:00pm 19.8 20.3 19.3 97 0.3 N 15 22 8 12 1005.1 1005.0 0.0
18/08:30pm 19.3 20.3 18.6 96 0.4 NNW 11 17 6 9 1005.1 1005.0 0.0
18/08:00pm 19.3 20.4 18.0 92 0.8 NNW 9 15 5 8 1004.9 1004.8 0.0
18/07:30pm 19.9 20.9 17.7 87 1.4 N 9 17 5 9 1004.4 1004.3 0.0
18/07:00pm 20.5 21.2 17.9 85 1.6 NNE 11 24 6 13 1004.2 1004.1 0.0
18/06:30pm 20.4 21.3 17.6 84 1.7 NNE 9 17 5 9 1004.0 1003.9 0.0
18/06:00pm 20.7 20.5 17.7 83 1.9 NNE 15 24 8 13 1004.0 1003.9 0.0
18/05:30pm 20.8 21.3 17.4 81 2.1 NNE 11 28 6 15 1003.9 1003.8 0.0
18/05:00pm 21.1 20.9 17.7 81 2.1 NNE 15 24 8 13 1003.9 1003.8 0.0
18/04:30pm 21.2 21.4 17.6 80 2.2 NNE 13 24 7 13 1004.1 1004.0 0.0
18/04:00pm 21.0 19.0 17.4 80 2.2 NNE 24 37 13 20 1004.3 1004.2 0.0
18/03:30pm 20.4 19.2 17.4 83 1.8 NNE 20 32 11 17 1004.3 1004.2 0.0
18/03:00pm 20.4 19.2 17.4 83 1.8 NNE 20 30 11 16 1004.6 1004.5 0.0
18/02:30pm 21.0 20.5 17.8 82 2.0 NE 17 28 9 15 1004.8 1004.7 0.0
18/02:00pm 21.2 20.9 18.2 83 1.9 NE 17 26 9 14 1005.3 1005.2 0.0
18/01:30pm 21.1 20.6 17.7 81 2.1 NE 17 26 9 14 1005.9 1005.8 0.0
18/01:00pm 21.4 21.6 18.6 84 1.8 NE 15 24 8 13 1006.4 1006.3 0.0
18/12:30pm 21.0 21.3 17.8 82 2.0 NE 13 20 7 11 1007.0 1006.9 0.0
18/12:00pm 20.3 19.7 16.7 80 2.2 NE 15 28 8 15 1007.4 1007.3 0.0
18/11:30am 20.1 19.7 16.1 78 2.4 NNE 13 20 7 11 1008.0 1007.9 0.0
18/11:00am 19.7 18.4 14.7 73 2.9 NNE 15 20 8 11 1008.7 1008.6 0.0
18/10:30am 19.9 20.4 15.5 76 2.6 N 7 13 4 7 1009.1 1009.0 0.0
18/10:00am 18.5 18.3 14.6 78 2.3 N 9 17 5 9 1009.2 1009.1 0.0
18/09:30am 18.0 18.3 14.5 80 2.0 N 6 9 3 5 1009.5 1009.4 0.0
18/09:00am 17.6 17.4 13.5 77 2.3 N 7 11 4 6 1009.8 1009.7 0.0
18/08:30am 17.4 18.1 14.5 83 1.7 N 4 7 2 4 1010.0 1009.9 0.0
18/08:00am 17.0 17.5 13.9 82 1.8 N 4 6 2 3 1010.1 1010.0 0.0
18/07:30am 17.1 18.4 14.0 82 1.8 CALM 0 2 0 1 1010.0 1009.9 0.0
18/07:00am 16.8 18.2 14.4 86 1.4 CALM 0 0 0 0 1009.8 1009.7 0.0
18/06:30am 16.4 17.7 14.1 86 1.3 CALM 0 0 0 0 1009.7 1009.6 0.0
18/06:00am 16.2 17.2 13.3 83 1.6 CALM 0 0 0 0 1009.3 1009.2 0.0
18/05:30am 16.4 17.4 13.3 82 1.7 CALM 0 0 0 0 1009.4 1009.3 0.0
18/05:00am 16.5 17.6 13.4 82 1.7 CALM 0 0 0 0 1009.5 1009.4 0.0
18/04:30am 16.5 17.6 13.4 82 1.7 CALM 0 0 0 0 1009.2 1009.1 0.0
18/04:00am 16.3 17.2 13.0 81 1.8 CALM 0 2 0 1 1009.1 1009.0 0.0
18/03:30am 16.3 16.4 12.8 80 1.9 NNW 4 6 2 3 1009.4 1009.3 0.0
18/03:00am 16.4 17.1 13.3 82 1.7 NW 2 6 1 3 1009.4 1009.3 0.0
18/02:30am 16.3 17.0 13.4 83 1.6 NNW 2 4 1 2 1009.7 1009.6 0.0
18/02:00am 16.4 16.4 13.5 83 1.6 NNW 6 6 3 3 1010.2 1010.1 0.0
18/01:30am 16.5 17.6 13.4 82 1.7 CALM 0 0 0 0 1010.4 1010.3 0.0
18/01:00am 16.4 17.1 13.5 83 1.6 N 2 4 1 2 1010.7 1010.6 0.0
18/12:30am 16.3 17.4 13.4 83 1.6 CALM 0 0 0 0 1011.0 1010.9 0.0
18/12:00am 16.1 17.2 13.4 84 1.5 CALM 0 0 0 0 1011.4 1011.3 0.0
 
Date/Time
EDT
Temp
°C
App
Temp
°C
Dew
Point
Rel
Hum
%
Delta-T
°C
Wind Press
QNH
hPa
Press
MSL
hPa
Rain
since 9 am
mm
Dir
 
Spd
km/h
Gust
km/h
Spd
kts
Gust
kts
17/11:30pm 16.0 16.3 13.5 85 1.4 NE 4 4 2 2 1011.5 1011.4 0.0
17/11:00pm 16.3 16.2 13.4 83 1.6 N 6 11 3 6 1012.0 1011.9 0.0
17/10:30pm 16.8 15.2 12.9 78 2.2 N 13 20 7 11 1011.9 1011.8 0.0
17/10:00pm 17.4 17.1 12.7 74 2.6 NNE 6 15 3 8 1011.6 1011.5 0.0
17/09:30pm 17.5 16.9 12.4 72 2.8 NNE 7 15 4 8 1011.4 1011.3 0.0
17/09:00pm 17.5 17.1 12.4 72 2.8 NE 6 7 3 4 1011.0 1010.9 0.0
17/08:30pm 17.5 17.6 12.6 73 2.7 E 4 7 2 4 1010.7 1010.6 0.0
17/08:00pm 17.7 18.1 12.4 71 2.9 SE 2 7 1 4 1010.5 1010.4 0.0
17/07:30pm 17.9 17.9 12.4 70 3.1 ESE 4 9 2 5 1010.1 1010.0 0.0
17/07:00pm 17.9 17.4 11.9 68 3.3 SE 6 7 3 4 1009.8 1009.7 0.0
17/06:30pm 18.1 17.4 11.4 65 3.7 SE 6 7 3 4 1009.6 1009.5 0.0
17/06:00pm 18.4 17.6 11.2 63 3.9 SE 6 11 3 6 1009.2 1009.1 0.0
17/05:30pm 18.4 17.6 11.2 63 3.9 SE 6 11 3 6 1009.0 1008.9 0.0
17/05:00pm 18.8 17.9 11.4 62 4.1 SE 7 11 4 6 1008.9 1008.8 0.0
17/04:30pm 19.2 18.5 11.3 60 4.3 SE 6 13 3 7 1009.0 1008.9 0.0
17/04:00pm 19.0 17.4 10.3 57 4.7 SE 9 17 5 9 1009.0 1008.9 0.0
17/03:30pm 19.5 18.0 10.5 56 4.9 SE 9 15 5 8 1008.8 1008.7 0.0
17/03:00pm 19.9 18.9 11.1 57 4.8 SSE 7 11 4 6 1008.7 1008.6 0.0
17/02:30pm 19.2 17.7 10.5 57 4.7 SSE 9 17 5 9 1008.7 1008.6 0.0
17/02:00pm 19.3 16.6 10.3 56 4.9 SSE 15 19 8 10 1008.6 1008.5 0.0
17/01:30pm 19.9 17.3 10.6 55 5.0 SSE 15 19 8 10 1008.4 1008.3 0.0
17/01:00pm 19.1 15.9 10.1 56 4.8 SSE 17 20 9 11 1008.4 1008.3 0.0
17/12:30pm 19.1 15.7 10.4 57 4.7 SSE 19 24 10 13 1008.3 1008.2 0.0
17/12:00pm 18.9 16.1 11.5 62 4.1 SSE 17 24 9 13 1008.2 1008.1 0.0
17/11:30am 19.1 16.0 11.7 62 4.1 SSE 19 26 10 14 1008.2 1008.1 0.0
17/11:00am 19.0 15.8 11.1 60 4.3 SSE 19 28 10 15 1008.1 1008.0 0.0
17/10:30am 17.9 14.4 10.8 63 3.8 SSE 20 28 11 15 1007.9 1007.8 0.0
17/10:00am 17.8 13.9 10.7 63 3.8 SSE 22 32 12 17 1007.6 1007.5 0.0
17/09:30am 18.1 14.3 11.2 64 3.8 SSE 22 32 12 17 1007.4 1007.3 0.0
17/09:00am 17.7 14.6 11.7 68 3.3 SSE 19 30 10 16 1007.2 1007.1 0.4
17/08:30am 17.4 14.3 11.7 69 3.1 S 19 28 10 15 1007.0 1006.9 0.4
17/08:00am 17.4 14.8 11.9 70 3.0 SSE 17 24 9 13 1006.7 1006.6 0.4
17/07:30am 17.3 15.1 12.2 72 2.8 SSE 15 20 8 11 1006.2 1006.1 0.4
17/07:00am 17.2 15.1 12.3 73 2.7 S 15 24 8 13 1005.5 1005.4 0.4
17/06:30am 17.3 15.0 13.0 76 2.4 SSE 17 22 9 12 1004.9 1004.8 0.4
17/06:00am 17.2 15.5 13.5 79 2.1 SSE 15 20 8 11 1004.3 1004.2 0.4
17/05:30am 17.1 15.3 13.4 79 2.1 S 15 19 8 10 1003.8 1003.7 0.4
17/05:00am 17.1 15.3 13.4 79 2.1 SSE 15 20 8 11 1003.2 1003.1 0.4
17/04:30am 17.2 15.1 13.7 80 2.0 S 17 22 9 12 1002.6 1002.5 0.4
17/04:00am 17.1 14.6 14.2 83 1.7 S 20 26 11 14 1002.0 1001.9 0.4
17/03:30am 16.8 15.4 14.4 86 1.4 SSW 15 22 8 12 1001.8 1001.7 0.4
17/03:00am 17.1 14.9 14.4 84 1.6 SSW 19 26 10 14 1001.6 1001.5 0.4
17/02:30am 17.5 14.0 14.6 83 1.7 SSW 26 39 14 21 1001.1 1001.0 0.4
17/02:00am 18.0 13.1 15.4 85 1.5 SSW 35 50 19 27 1000.2 1000.0 0.4
17/01:31am 18.7 14.1 16.1 85 1.5 SSW 35 56 19 30 998.7 998.5 0.4
17/01:30am 18.9 14.7 16.3 85 1.6 SSW 33 52 18 28 998.8 998.6 0.4
17/01:04am 19.2 18.0 15.1 77 2.4 WNW 15 46 8 25 997.7 997.5 0.4
17/01:00am 19.1 18.6 12.6 66 3.7 NNW 7 11 4 6 996.9 996.8 0.4
17/12:30am 18.7 19.5 17.2 91 0.9 NNW 9 11 5 6 996.6 996.5 0.4
17/12:00am 19.4 20.2 18.1 92 0.8 N 11 13 6 7 996.4 996.3 0.4
 
Date/Time
EDT
Temp
°C
App
Temp
°C
Dew
Point
Rel
Hum
%
Delta-T
°C
Wind Press
QNH
hPa
Press
MSL
hPa
Rain
since 9 am
mm
Dir
 
Spd
km/h
Gust
km/h
Spd
kts
Gust
kts
16/11:30pm 19.2 20.3 18.0 93 0.7 N 9 13 5 7 996.7 996.6 0.4
16/11:00pm 19.1 19.9 18.1 94 0.6 NNW 11 15 6 8 996.6 996.5 0.4
16/10:30pm 19.2 20.0 17.3 89 1.2 N 9 13 5 7 996.6 996.5 0.4
16/10:00pm 20.3 21.0 17.9 86 1.5 N 11 15 6 8 996.8 996.7 0.4
16/09:30pm 20.2 19.4 18.1 88 1.3 N 19 24 10 13 996.3 996.2 0.4
16/09:00pm 20.6 19.8 18.0 85 1.6 N 19 24 10 13 996.4 996.3 0.4
16/08:30pm 21.1 22.2 18.1 83 1.9 N 9 15 5 8 996.6 996.5 0.4
16/08:00pm 20.6 20.9 18.0 85 1.6 N 13 19 7 10 996.6 996.5 0.4
16/07:30pm 20.3 21.7 17.7 85 1.6 NNW 7 13 4 7 996.2 996.1 0.4
16/07:00pm 20.9 21.9 17.7 82 2.0 NNE 9 20 5 11 996.1 996.0 0.4
16/06:30pm 21.4 22.0 17.6 79 2.3 NNE 11 20 6 11 995.7 995.6 0.4
16/06:00pm 21.6 21.9 17.8 79 2.4 NE 13 24 7 13 995.4 995.3 0.4
16/05:30pm 21.6 20.7 17.8 79 2.4 NE 19 33 10 18 995.4 995.3 0.4
16/05:00pm 21.5 17.9 17.7 79 2.4 NE 33 46 18 25 995.4 995.3 0.4
16/04:30pm 21.5 17.4 17.3 77 2.6 NE 35 54 19 29 996.0 995.9 0.4
16/04:29pm 21.6 17.5 17.4 77 2.6 NE 35 54 19 29 996.0 995.9 0.4
16/04:00pm 21.9 18.8 17.5 76 2.7 NE 30 46 16 25 996.7 996.6 0.4
16/03:55pm 21.9 19.5 17.3 75 2.8 NE 26 46 14 25 996.7 996.6 0.4
16/03:30pm 22.6 22.4 17.7 74 3.0 NNE 15 26 8 14 996.8 996.7 0.4
16/03:00pm 22.4 21.4 17.5 74 3.1 NNE 19 33 10 18 997.2 997.1 0.4
16/02:30pm 22.2 20.5 17.3 74 3.0 NNE 22 35 12 19 997.7 997.5 0.4
16/02:00pm 23.2 23.4 17.7 71 3.4 NNE 13 26 7 14 998.6 998.4 0.4
16/01:30pm 23.5 23.0 16.8 66 4.1 N 15 24 8 13 999.2 999.0 0.4
16/01:00pm 23.0 19.0 16.3 66 4.1 N 32 52 17 28 1000.0 999.8 0.4
16/12:47pm 22.7 19.5 16.3 67 3.9 N 28 48 15 26 1000.2 1000.0 0.4
16/12:30pm 21.6 19.7 16.6 73 3.0 N 22 43 12 23 1000.0 999.8 0.4
16/12:10pm 20.9 17.0 16.5 76 2.7 N 32 52 17 28 1000.2 1000.0 0.4
16/12:00pm 20.6 18.9 17.2 81 2.1 N 22 33 12 18 1000.4 1000.2 0.4
16/11:30am 19.6 16.9 16.6 83 1.8 N 26 39 14 21 1001.5 1001.4 0.4
16/11:02am 19.3 17.7 17.4 89 1.2 NNE 22 48 12 26 1001.4 1001.3 0.4
16/11:00am 19.0 17.6 17.0 88 1.2 NNE 20 48 11 26 1001.4 1001.3 0.4
16/10:58am 19.0 19.0 17.1 89 1.2 N 13 35 7 19 1002.7 1002.6 0.4

Other Formats:

Comma delimited format used in spreadsheet applications
http://www.bom.gov.au/fwo/IDN60801/IDN60801.94938.axf

JavaScript Object Notation format (JSON) in row-major order
http://www.bom.gov.au/fwo/IDN60801/IDN60801.94938.json